Tabatinga Airport
SBTT : now visible

Airfield :











YOU CAN JOIN US ON...

 
LOGIN :

Register | Disclaimer

   EN    FR    IT 

 









Legend :    VFR   Marginal VFR   IFR   Intensive IFR   Very Intensive IFR
Visi :
Ceiling :
>= 8 km
>= 3000ft
5 to 8 km
1000 to 3000 ft
1500m to 5 km
500 to 1000 ft
800 to 1500m
200 to 500 ft
< 800m
< 200 ft
Symbols :   Thunderstorms  Fog  Heavy snow  Heavy precipitations  Wind > 20 kt






- Airport Elevation : 279 ft
- IATA code : TBT


SBTT - Tabatinga

CURRENT METAR :
  • 201200Z 31006KT 9999 SCT010 BKN070 25/24 Q1011

EXPIRED METARs :
  • 201100Z 26002KT 9999 BKN006 OVC070 25/25 Q1010

TAF TAF SBTT
Valid from the 20 at 12:00 until the 21 at 12:00 UTC


200840Z 2012/2112 28005KT 8000 SCT010 TX31/2018Z TN24/2110Z
BECMG 2015/2017 24010KT 9999 SCT020
BECMG 2018/2020 20010KT BKN020 FEW030TCU
BECMG 2021/2023 24005KT FEW025
BECMG 2110/2112 12005KT 8000 BKN007 RMK PGB



MET'MAP, your aeronautical weather chart ! - Copyright ORBIFLY December 2007 - Disclaimer

ORBIFLY MET'MAP TEAM :

Programming & Development : Alexandra Zaïnal
Concept & original design : Baudouin d'Aumeries
Assistance for programming : Marc-Olivier Méhu
Technical & hardware support : Manuel Goepfert

Contact : metmap@orbifly.com




SOURCES & CREDITS :

   NOAA       Earth
Advisory